Spencer, SD (57374)

10:19 AM CDT on July 25, 2016 (GMT -0500)
Rural Canova, SD | | Change Station

Elev 1542 ft 43.81 °N, 97.48 °W | Updated 15 seconds ago

Clear
Clear
77.5 °F
Feels Like 79 °F
N
5.1
Wind Variable Wind from SW
Gusts 8.1 mph

Today
High -- | Low -- °F
--% Chance of Precip.
Yesterday
High -- | Low -- °F
Precip. -- in
Pressure 30.09 in
Visibility 10.0 miles
Clouds Clear
Heat Index 79 °F
Dew Point 68 °F
Humidity 73%
Rainfall 0.00 in
Snow Depth Not available.
6:12 AM 9:00 PM
Waning Gibbous, 65% visible
METAR KMHE 251453Z AUTO 19009KT 10SM CLR 27/18 A3012 RMK AO2 SLP190 T02670178 51004
Pressure 30.09 in
Visibility 10.0 miles
Clouds Clear
Heat Index 79 °F
Dew Point 68 °F
Humidity 73%
Rainfall 0.00 in
Snow Depth Not available.
6:12 AM 9:00 PM
Waning Gibbous, 65% visible
METAR KMHE 251453Z AUTO 19009KT 10SM CLR 27/18 A3012 RMK AO2 SLP190 T02670178 51004

10-Day Weather Forecast

Almanac

Astronomy

Jul. 25, 2016 Rise Set
Actual Time
Civil Twilight
Nautical Twilight
Astronomical Twilight
Moon
Length of Visible Light
Length of Day
Tomorrow will be .
, % of the Moon is Illuminated

Today's Extremes

State Highs State Lows

Community

WunderPhotos

Upload Photos

1,927,314 photos uploaded!

WunderBlog® & News

Nearby

Air Quality

  Air Quality AQ Index Pollutant
Not available.

Snow Depth

Station Depth Elevation

Earthquake Activity

City Distance Mag. Time & Date
Minimum magnitude displayed is 2.5.

Coastal Water Temperatures

Place Temperature

Stations

Nearby Weather Stations

Station Location Temp. Windchill Dew Point Humidity Wind Precip. Elev Updated Type
                   

Watches & Warnings

There are currently no watches in effect.